메인 페이지
METAR-TAF:

METAR-TAF

공항 :

Pensacola Regional Airport

펜서콜라, 플로리다, 미국

위도: 30-28-41N, 경도: 087-11-13W, 고도: 36m

현재 날씨관측

예보는 25분 전, 14:53시(UTC)에 발표되었습니다.
무풍
온도 29°C
습도 70%
기압 1016 hPa
시정: 16.1km
고도 8000ft 상공 흐림

METAR: KPNS 061453Z 00000KT 10SM OVC080 29/23 A3001 RMK AO2 SLP164 T02890233 51012

시각: 10:18 (15:18 UTC)

예보

예보는 3 시간 44분 전, 11:34시(UTC)에 발표되었습니다.
예보 대상 시간: 06일 12시부터 07일 12시까지 (UTC)
서북서5kt
시정: 10km
고도 4500ft 상공 구름 조금
고도 25000ft 상공 구름 조금
시계 내 소나기
06일 1800시부터 (UTC)
남남서6kt
시정: 10km
고도 4000ft 상공 구름 조금
고도 10000ft 상공 구름 조금
07일 0000시부터 (UTC)
남서6kt
시정: 10km
고도 6000ft 상공 구름 조금
고도 25000ft 상공 구름 조금

TAF: KPNS 061134Z 0612/0712 30005KT P6SM VCSH FEW045 FEW250 FM061800 20006KT P6SM FEW040 FEW100 FM070000 22006KT P6SM FEW060 FEW250

4,000개 이상의 공항 관측 자료 및 예보 (METAR 및 TAF 보고).

지도상에서 검색 가능한 기상관측소가 노란 점과 빨간 점으로 표시되어 있습니다.

기상관측소 명을 보려면 표시 위로 마우스를 이동하세요.

날씨 관측과 예보를 보려면 클릭하세요.

지도 변경 : 확대하려면 엑스 표시가 있는 녹색 버튼, 축소하려면 빼기 표시가 있는 녹색 버튼, 다음 페이지의 지도를 보려면 녹색 화살표를 클릭하세요.


METAR-TAF: